createdAt,value
2023-03-31T00:00:23.540Z, 42.89
2023-03-31T00:01:23.508Z, 42.90
2023-03-31T00:02:23.705Z, 42.90
2023-03-31T00:03:23.649Z, 42.91
2023-03-31T00:04:23.580Z, 42.83
2023-03-31T00:05:23.593Z, 42.80
2023-03-31T00:06:23.578Z, 42.77
2023-03-31T00:07:23.623Z, 42.81
2023-03-31T00:08:23.590Z, 42.77
2023-03-31T00:09:23.635Z, 42.74
2023-03-31T00:10:23.641Z, 42.75
2023-03-31T00:11:23.612Z, 42.69
2023-03-31T00:12:23.607Z, 42.66
2023-03-31T00:13:23.612Z, 42.69
2023-03-31T00:14:23.667Z, 42.64
2023-03-31T00:15:23.652Z, 42.68
2023-03-31T00:16:23.687Z, 42.59
2023-03-31T00:17:23.727Z, 42.54
2023-03-31T00:18:23.679Z, 42.55
2023-03-31T00:19:23.770Z, 42.58
2023-03-31T00:20:23.742Z, 42.55
2023-03-31T00:21:23.799Z, 42.57
2023-03-31T00:22:23.765Z, 42.55
2023-03-31T00:23:23.802Z, 42.54
2023-03-31T00:24:23.783Z, 42.53
2023-03-31T00:25:23.791Z, 42.46
2023-03-31T00:26:23.809Z, 42.52
2023-03-31T00:27:23.800Z, 42.44
2023-03-31T00:28:23.812Z, 42.45
2023-03-31T00:29:23.814Z, 42.46
2023-03-31T00:30:23.908Z, 42.36
2023-03-31T00:31:23.915Z, 42.37
2023-03-31T00:32:23.924Z, 42.34
2023-03-31T00:33:23.904Z, 42.32
2023-03-31T00:34:23.910Z, 42.25
2023-03-31T00:35:23.930Z, 42.25
2023-03-31T00:36:23.944Z, 42.25
2023-03-31T00:37:23.967Z, 42.25
2023-03-31T00:38:23.952Z, 42.26
2023-03-31T00:39:23.975Z, 42.18
2023-03-31T00:40:23.973Z, 42.13
2023-03-31T00:41:24.069Z, 42.11
2023-03-31T00:42:24.040Z, 42.06
2023-03-31T00:43:24.038Z, 42.11
2023-03-31T00:44:24.098Z, 42.08
2023-03-31T00:45:24.046Z, 42.07
2023-03-31T00:46:24.185Z, 42.03
2023-03-31T00:47:24.098Z, 42.08
2023-03-31T00:48:24.110Z, 42.03
2023-03-31T00:49:24.106Z, 41.98
2023-03-31T00:50:24.101Z, 41.98
2023-03-31T00:51:24.107Z, 41.96
2023-03-31T00:52:24.127Z, 41.91
2023-03-31T00:53:24.141Z, 41.87
2023-03-31T00:54:24.152Z, 41.81
2023-03-31T00:55:24.171Z, 41.80
2023-03-31T00:56:24.172Z, 41.74
2023-03-31T00:57:24.304Z, 41.83
2023-03-31T00:58:24.191Z, 41.80
2023-03-31T00:59:24.266Z, 41.78
2023-03-31T01:00:24.364Z, 41.77
2023-03-31T01:01:24.294Z, 41.69
2023-03-31T01:02:24.284Z, 41.70
2023-03-31T01:03:24.279Z, 41.71
2023-03-31T01:04:24.359Z, 41.69
2023-03-31T01:05:24.312Z, 41.69
2023-03-31T01:06:24.341Z, 41.62
2023-03-31T01:07:24.345Z, 41.56
2023-03-31T01:08:24.387Z, 41.54
2023-03-31T01:09:24.347Z, 41.56
2023-03-31T01:10:24.358Z, 41.53
2023-03-31T01:11:24.457Z, 41.53
2023-03-31T01:12:24.435Z, 41.59
2023-03-31T01:13:24.399Z, 41.59
2023-03-31T01:14:24.414Z, 41.54
2023-03-31T01:15:24.436Z, 41.56
2023-03-31T01:16:24.541Z, 41.53
2023-03-31T01:17:24.589Z, 41.53
2023-03-31T01:18:24.732Z, 41.50
2023-03-31T01:19:24.499Z, 41.49
2023-03-31T01:20:24.564Z, 41.53
2023-03-31T01:21:24.516Z, 41.49
2023-03-31T01:22:24.542Z, 41.48
2023-03-31T01:23:24.517Z, 41.42
2023-03-31T01:24:24.552Z, 41.39
2023-03-31T01:25:24.566Z, 41.40
2023-03-31T01:26:24.573Z, 41.31
2023-03-31T01:27:24.558Z, 41.29
2023-03-31T01:28:24.594Z, 41.27
2023-03-31T01:29:24.592Z, 41.23
2023-03-31T01:30:24.611Z, 41.23
2023-03-31T01:31:24.695Z, 41.24
2023-03-31T01:32:24.625Z, 41.15
2023-03-31T01:33:24.708Z, 41.23
2023-03-31T01:34:24.670Z, 41.25
2023-03-31T01:35:24.699Z, 41.17
2023-03-31T01:36:24.663Z, 41.16
2023-03-31T01:37:24.681Z, 41.24
2023-03-31T01:38:24.760Z, 41.22
2023-03-31T01:39:24.723Z, 41.23
2023-03-31T01:40:24.814Z, 41.12
2023-03-31T01:41:24.784Z, 41.09
2023-03-31T01:42:24.786Z, 41.06
2023-03-31T01:43:24.828Z, 41.06
2023-03-31T01:44:24.811Z, 41.06
2023-03-31T01:45:24.883Z, 40.98
2023-03-31T01:46:24.869Z, 40.97
2023-03-31T01:47:24.892Z, 40.95
2023-03-31T01:48:24.858Z, 40.93
2023-03-31T01:49:24.852Z, 40.92
2023-03-31T01:50:24.953Z, 40.86
2023-03-31T01:51:24.897Z, 40.84
2023-03-31T01:52:24.947Z, 40.86
2023-03-31T01:53:24.915Z, 40.86
2023-03-31T01:54:24.959Z, 40.86
2023-03-31T01:55:24.939Z, 40.88
2023-03-31T01:56:25.016Z, 40.85
2023-03-31T01:57:25.116Z, 40.82
2023-03-31T01:58:25.022Z, 40.85
2023-03-31T01:59:24.976Z, 40.80
2023-03-31T02:00:25.062Z, 40.76
2023-03-31T02:01:25.128Z, 40.81
2023-03-31T02:02:25.214Z, 40.74
2023-03-31T02:03:25.221Z, 40.78
2023-03-31T02:04:25.066Z, 40.73
2023-03-31T02:05:25.072Z, 40.75
2023-03-31T02:06:25.144Z, 40.73
2023-03-31T02:07:25.112Z, 40.69
2023-03-31T02:08:25.116Z, 40.66
2023-03-31T02:09:25.117Z, 40.72
2023-03-31T02:10:25.135Z, 40.61
2023-03-31T02:11:25.124Z, 40.58
2023-03-31T02:12:25.142Z, 40.59
2023-03-31T02:13:25.214Z, 40.59
2023-03-31T02:14:25.190Z, 40.56
2023-03-31T02:15:25.203Z, 40.52
2023-03-31T02:16:25.252Z, 40.48
2023-03-31T02:17:25.260Z, 40.46
2023-03-31T02:18:25.209Z, 40.47
2023-03-31T02:19:25.223Z, 40.43
2023-03-31T02:20:25.268Z, 40.41
2023-03-31T02:21:25.265Z, 40.42
2023-03-31T02:22:25.321Z, 40.42
2023-03-31T02:23:25.292Z, 40.39
2023-03-31T02:24:25.301Z, 40.41
2023-03-31T02:25:25.308Z, 40.42
2023-03-31T02:26:25.309Z, 40.43
2023-03-31T02:27:25.316Z, 40.44
2023-03-31T02:28:25.325Z, 40.39
2023-03-31T02:29:25.403Z, 40.35
2023-03-31T02:30:25.381Z, 40.36
2023-03-31T02:31:25.384Z, 40.34
2023-03-31T02:32:25.551Z, 40.27
2023-03-31T02:33:25.428Z, 40.27
2023-03-31T02:34:25.432Z, 40.23
2023-03-31T02:35:25.441Z, 40.27
2023-03-31T02:36:25.418Z, 40.24
2023-03-31T02:37:25.427Z, 40.19
2023-03-31T02:38:25.462Z, 40.16
2023-03-31T02:39:25.453Z, 40.19
2023-03-31T02:40:25.541Z, 40.18
2023-03-31T02:41:25.510Z, 40.15
2023-03-31T02:42:25.572Z, 40.16
2023-03-31T02:43:25.549Z, 40.09
2023-03-31T02:44:25.597Z, 40.10
2023-03-31T02:45:25.544Z, 40.12
2023-03-31T02:46:25.820Z, 40.13
2023-03-31T02:47:25.621Z, 40.06
2023-03-31T02:48:25.587Z, 40.06
2023-03-31T02:49:25.592Z, 40.03
2023-03-31T02:50:25.585Z, 40.06
2023-03-31T02:51:25.680Z, 40.06
2023-03-31T02:52:25.646Z, 40.00
2023-03-31T02:53:25.716Z, 39.96
2023-03-31T02:54:25.688Z, 39.98
2023-03-31T02:55:25.704Z, 39.93
2023-03-31T02:56:25.686Z, 39.93
2023-03-31T02:57:25.826Z, 39.87
2023-03-31T02:58:25.733Z, 39.85
2023-03-31T02:59:25.724Z, 39.88
2023-03-31T03:00:25.736Z, 39.90
2023-03-31T03:01:25.785Z, 39.87
2023-03-31T03:02:25.819Z, 39.87
2023-03-31T03:03:25.797Z, 39.87
2023-03-31T03:04:25.857Z, 39.90
2023-03-31T03:05:25.780Z, 39.82
2023-03-31T03:06:25.802Z, 39.78
2023-03-31T03:07:25.802Z, 39.78
2023-03-31T03:08:25.812Z, 39.79
2023-03-31T03:09:25.827Z, 39.80
2023-03-31T03:10:25.931Z, 39.74
2023-03-31T03:11:25.911Z, 39.70
2023-03-31T03:12:26.006Z, 39.75
2023-03-31T03:13:25.964Z, 39.76
2023-03-31T03:14:26.005Z, 39.66
2023-03-31T03:15:25.977Z, 39.67
2023-03-31T03:16:25.984Z, 39.60
2023-03-31T03:17:26.083Z, 39.59
2023-03-31T03:18:26.040Z, 39.57
2023-03-31T03:19:26.028Z, 39.59
2023-03-31T03:20:26.015Z, 39.53
2023-03-31T03:21:26.021Z, 39.57
2023-03-31T03:22:26.053Z, 39.58
2023-03-31T03:23:26.070Z, 39.53
2023-03-31T03:24:26.078Z, 39.48
2023-03-31T03:25:26.084Z, 39.51
2023-03-31T03:26:26.148Z, 39.52
2023-03-31T03:27:26.123Z, 39.45
2023-03-31T03:28:26.177Z, 39.51
2023-03-31T03:29:26.160Z, 39.50
2023-03-31T03:30:26.173Z, 39.51
2023-03-31T03:31:26.558Z, 40.09
2023-03-31T03:32:26.194Z, 41.38
2023-03-31T03:33:26.167Z, 41.78
2023-03-31T03:34:26.243Z, 41.80
2023-03-31T03:35:26.234Z, 41.73
2023-03-31T03:36:26.362Z, 41.66
2023-03-31T03:37:26.224Z, 41.62
2023-03-31T03:38:26.266Z, 41.57
2023-03-31T03:39:26.245Z, 41.47
2023-03-31T03:40:26.274Z, 41.36
2023-03-31T03:41:26.265Z, 41.19
2023-03-31T03:42:26.272Z, 41.00
2023-03-31T03:43:26.366Z, 40.84
2023-03-31T03:44:26.326Z, 40.66
2023-03-31T03:45:26.339Z, 40.57
2023-03-31T03:46:26.358Z, 40.46
2023-03-31T03:47:26.435Z, 40.37
2023-03-31T03:48:26.402Z, 40.28
2023-03-31T03:49:26.427Z, 40.18
2023-03-31T03:50:26.429Z, 40.11
2023-03-31T03:51:26.457Z, 40.04
2023-03-31T03:52:26.457Z, 39.98
2023-03-31T03:53:26.468Z, 39.94
2023-03-31T03:54:26.446Z, 39.90
2023-03-31T03:55:26.465Z, 39.80
2023-03-31T03:56:26.478Z, 39.78
2023-03-31T03:57:26.647Z, 39.73
2023-03-31T03:58:26.558Z, 39.67
2023-03-31T03:59:26.523Z, 39.61
2023-03-31T04:00:26.539Z, 39.60
2023-03-31T04:01:26.528Z, 39.53
2023-03-31T04:02:28.095Z, 45.81
2023-03-31T04:03:26.667Z, 51.76
2023-03-31T04:04:26.596Z, 54.23
2023-03-31T04:05:26.664Z, 56.95
2023-03-31T04:06:26.627Z, 60.31
2023-03-31T04:07:26.668Z, 66.75
2023-03-31T04:08:26.643Z, 54.42
2023-03-31T04:09:26.674Z, 53.11
2023-03-31T04:10:26.672Z, 54.45
2023-03-31T04:11:26.655Z, 55.94
2023-03-31T04:12:26.680Z, 59.49
2023-03-31T04:13:26.659Z, 69.09
2023-03-31T04:14:26.741Z, 59.74
2023-03-31T04:15:26.716Z, 53.99
2023-03-31T04:16:26.777Z, 54.72
2023-03-31T04:17:26.772Z, 56.07
2023-03-31T04:18:26.812Z, 58.47
2023-03-31T04:19:26.775Z, 66.40
2023-03-31T04:20:26.757Z, 61.13
2023-03-31T04:21:26.756Z, 53.65
2023-03-31T04:22:26.756Z, 54.50
2023-03-31T04:23:26.794Z, 55.56
2023-03-31T04:24:26.782Z, 55.34
2023-03-31T04:25:26.848Z, 53.90
2023-03-31T04:26:26.824Z, 52.29
2023-03-31T04:27:26.826Z, 51.19
2023-03-31T04:28:26.852Z, 50.28
2023-03-31T04:29:26.860Z, 49.57
2023-03-31T04:30:26.885Z, 49.12
2023-03-31T04:31:26.933Z, 48.84
2023-03-31T04:32:26.983Z, 48.64
2023-03-31T04:33:26.951Z, 48.44
2023-03-31T04:34:26.965Z, 48.18
2023-03-31T04:35:26.962Z, 47.94
2023-03-31T04:36:26.954Z, 47.70
2023-03-31T04:37:26.966Z, 47.49
2023-03-31T04:38:26.985Z, 47.32
2023-03-31T04:39:27.148Z, 47.11
2023-03-31T04:40:27.003Z, 46.95
2023-03-31T04:41:27.078Z, 46.82
2023-03-31T04:42:27.047Z, 46.72
2023-03-31T04:43:27.081Z, 46.58
2023-03-31T04:44:27.078Z, 46.46
2023-03-31T04:45:27.108Z, 46.34
2023-03-31T04:46:27.161Z, 46.22
2023-03-31T04:47:27.097Z, 46.11
2023-03-31T04:48:27.148Z, 46.03
2023-03-31T04:49:27.114Z, 45.94
2023-03-31T04:50:27.167Z, 45.83
2023-03-31T04:51:27.154Z, 45.77
2023-03-31T04:52:27.147Z, 45.66
2023-03-31T04:53:27.149Z, 45.62
2023-03-31T04:54:27.155Z, 45.56
2023-03-31T04:55:27.164Z, 45.46
2023-03-31T04:56:27.203Z, 45.39
2023-03-31T04:57:27.294Z, 45.33
2023-03-31T04:58:27.231Z, 45.21
2023-03-31T04:59:27.236Z, 45.14
2023-03-31T05:00:27.232Z, 45.09
2023-03-31T05:01:27.382Z, 45.04
2023-03-31T05:02:27.338Z, 44.94
2023-03-31T05:03:27.627Z, 44.89
2023-03-31T05:04:27.314Z, 44.83
2023-03-31T05:05:27.368Z, 44.79
2023-03-31T05:06:27.349Z, 44.71
2023-03-31T05:07:27.345Z, 44.68
2023-03-31T05:08:27.399Z, 44.60
2023-03-31T05:09:27.360Z, 44.54
2023-03-31T05:10:27.431Z, 44.46
2023-03-31T05:11:27.490Z, 44.39
2023-03-31T05:12:27.398Z, 44.34
2023-03-31T05:13:27.406Z, 44.29
2023-03-31T05:14:27.410Z, 44.22
2023-03-31T05:15:27.426Z, 44.15
2023-03-31T05:16:27.503Z, 44.14
2023-03-31T05:17:27.517Z, 44.00
2023-03-31T05:18:27.476Z, 43.85
2023-03-31T05:19:27.509Z, 43.67
2023-03-31T05:20:27.492Z, 43.43
2023-03-31T05:21:27.502Z, 43.25
2023-03-31T05:22:27.509Z, 43.09
2023-03-31T05:23:27.531Z, 42.96
2023-03-31T05:24:27.599Z, 42.85
2023-03-31T05:25:27.583Z, 42.78
2023-03-31T05:26:27.575Z, 42.69
2023-03-31T05:27:27.577Z, 42.60
2023-03-31T05:28:27.593Z, 42.50
2023-03-31T05:29:27.597Z, 42.40
2023-03-31T05:30:27.598Z, 42.31
2023-03-31T05:31:27.733Z, 42.26
2023-03-31T05:32:27.718Z, 42.22
2023-03-31T05:33:27.665Z, 42.17
2023-03-31T05:34:27.662Z, 42.11
2023-03-31T05:35:27.710Z, 42.02
2023-03-31T05:36:27.740Z, 41.95
2023-03-31T05:37:27.691Z, 41.87
2023-03-31T05:38:27.752Z, 41.79
2023-03-31T05:39:27.730Z, 41.77
2023-03-31T05:40:27.750Z, 41.73
2023-03-31T05:41:27.732Z, 41.69
2023-03-31T05:42:27.773Z, 41.58
2023-03-31T05:43:27.769Z, 41.58
2023-03-31T05:44:27.825Z, 41.54
2023-03-31T05:45:27.798Z, 41.51
2023-03-31T05:46:27.818Z, 41.46
2023-03-31T05:47:27.945Z, 41.38
2023-03-31T05:48:27.863Z, 41.34
2023-03-31T05:49:27.894Z, 41.28
2023-03-31T05:50:27.870Z, 41.26
2023-03-31T05:51:27.874Z, 41.20
2023-03-31T05:52:27.874Z, 41.17
2023-03-31T05:53:27.884Z, 41.16
2023-03-31T05:54:28.128Z, 41.17
2023-03-31T05:55:28.022Z, 41.17
2023-03-31T05:56:28.141Z, 41.07
2023-03-31T05:57:28.264Z, 41.08
2023-03-31T05:58:28.144Z, 41.03
2023-03-31T05:59:28.137Z, 41.02
2023-03-31T06:00:28.161Z, 40.94
2023-03-31T06:01:28.218Z, 40.94
2023-03-31T06:02:28.212Z, 40.90
2023-03-31T06:03:28.184Z, 40.92
2023-03-31T06:04:28.164Z, 40.88
2023-03-31T06:05:28.154Z, 40.85
2023-03-31T06:06:28.165Z, 40.81
2023-03-31T06:07:28.152Z, 40.73
2023-03-31T06:08:28.151Z, 40.73
2023-03-31T06:09:28.147Z, 40.75
2023-03-31T06:10:28.175Z, 40.74
2023-03-31T06:11:28.191Z, 40.65
2023-03-31T06:12:28.176Z, 40.63
2023-03-31T06:13:28.290Z, 40.59
2023-03-31T06:14:28.297Z, 40.57
2023-03-31T06:15:28.287Z, 40.59
2023-03-31T06:16:28.463Z, 40.58
2023-03-31T06:17:28.314Z, 40.54
2023-03-31T06:18:28.599Z, 40.55
2023-03-31T06:19:28.285Z, 40.51
2023-03-31T06:20:28.738Z, 40.49
2023-03-31T06:21:28.285Z, 40.47
2023-03-31T06:22:28.442Z, 40.44
2023-03-31T06:23:28.433Z, 40.44
2023-03-31T06:24:28.431Z, 40.41
2023-03-31T06:25:34.517Z, 40.36
2023-03-31T06:26:28.431Z, 40.32
2023-03-31T06:27:28.433Z, 40.33
2023-03-31T06:28:28.427Z, 40.31
2023-03-31T06:29:28.438Z, 40.28
2023-03-31T06:30:28.432Z, 40.27
2023-03-31T06:31:28.431Z, 40.27
2023-03-31T06:32:28.474Z, 40.25
2023-03-31T06:33:28.573Z, 40.21
2023-03-31T06:34:28.468Z, 40.21
2023-03-31T06:35:28.466Z, 40.14
2023-03-31T06:36:28.464Z, 40.15
2023-03-31T06:37:28.473Z, 40.12
2023-03-31T06:38:28.592Z, 40.09
2023-03-31T06:39:28.636Z, 40.11
2023-03-31T06:40:28.611Z, 40.10
2023-03-31T06:41:28.573Z, 40.09
2023-03-31T06:42:28.590Z, 40.08
2023-03-31T06:43:28.577Z, 40.01
2023-03-31T06:44:28.601Z, 39.92
2023-03-31T06:45:28.724Z, 39.91
2023-03-31T06:46:28.644Z, 39.96
2023-03-31T06:47:28.652Z, 39.93
2023-03-31T06:48:28.729Z, 39.92
2023-03-31T06:49:28.745Z, 39.91
2023-03-31T06:50:28.716Z, 39.93
2023-03-31T06:51:29.713Z, 39.92
2023-03-31T06:52:28.724Z, 39.87
2023-03-31T06:53:28.715Z, 39.86
2023-03-31T06:54:28.727Z, 39.91
2023-03-31T06:55:28.732Z, 39.91
2023-03-31T06:56:28.729Z, 39.83
2023-03-31T06:57:28.839Z, 39.78
2023-03-31T06:58:31.410Z, 39.77
2023-03-31T06:59:28.732Z, 39.75
2023-03-31T07:00:28.731Z, 39.75
2023-03-31T07:01:28.771Z, 39.71
2023-03-31T07:02:28.873Z, 39.72
2023-03-31T07:03:29.026Z, 39.66
2023-03-31T07:04:28.884Z, 39.64
2023-03-31T07:05:28.987Z, 39.64
2023-03-31T07:06:28.877Z, 39.69
2023-03-31T07:07:28.867Z, 39.69
2023-03-31T07:08:29.028Z, 39.60
2023-03-31T07:09:28.896Z, 39.59
2023-03-31T07:10:29.002Z, 39.57
2023-03-31T07:11:29.011Z, 39.54
2023-03-31T07:12:29.019Z, 39.56
2023-03-31T07:13:29.016Z, 39.51
2023-03-31T07:14:29.004Z, 39.51
2023-03-31T07:15:29.004Z, 39.54
2023-03-31T07:16:29.076Z, 39.50
2023-03-31T07:17:29.034Z, 39.49
2023-03-31T07:18:29.024Z, 39.46
2023-03-31T07:19:29.041Z, 39.46
2023-03-31T07:20:29.098Z, 39.45
2023-03-31T07:21:29.007Z, 39.37
2023-03-31T07:22:29.107Z, 39.32
2023-03-31T07:23:29.071Z, 39.30
2023-03-31T07:24:29.038Z, 39.30
2023-03-31T07:25:29.117Z, 39.29
2023-03-31T07:26:29.107Z, 39.23
2023-03-31T07:27:29.107Z, 39.26
2023-03-31T07:28:29.116Z, 39.23
2023-03-31T07:29:29.114Z, 39.20
2023-03-31T07:30:29.110Z, 39.18
2023-03-31T07:31:29.327Z, 39.15
2023-03-31T07:32:29.423Z, 39.15
2023-03-31T07:33:29.281Z, 39.15
2023-03-31T07:34:29.139Z, 39.17
2023-03-31T07:35:31.440Z, 39.19
2023-03-31T07:36:29.319Z, 39.15
2023-03-31T07:37:29.286Z, 39.13
2023-03-31T07:38:29.285Z, 39.13
2023-03-31T07:39:29.291Z, 39.12
2023-03-31T07:40:29.293Z, 39.08
2023-03-31T07:41:29.312Z, 39.12
2023-03-31T07:42:29.349Z, 39.12
2023-03-31T07:43:29.461Z, 39.06
2023-03-31T07:44:29.469Z, 39.05
2023-03-31T07:45:29.478Z, 38.97
2023-03-31T07:46:29.508Z, 38.98
2023-03-31T07:47:29.496Z, 39.00
2023-03-31T07:48:29.473Z, 38.97
2023-03-31T07:49:29.469Z, 38.92
2023-03-31T07:50:29.488Z, 38.95
2023-03-31T07:51:29.482Z, 38.95
2023-03-31T07:52:29.476Z, 38.97
2023-03-31T07:53:29.480Z, 38.96
2023-03-31T07:54:29.499Z, 38.97
2023-03-31T07:55:29.506Z, 38.80
2023-03-31T07:56:29.520Z, 38.81
2023-03-31T07:57:29.568Z, 38.83
2023-03-31T07:58:29.670Z, 38.83
2023-03-31T07:59:29.647Z, 38.87
2023-03-31T08:00:29.657Z, 38.82
2023-03-31T08:01:29.649Z, 38.81
2023-03-31T08:02:29.760Z, 38.81
2023-03-31T08:03:29.660Z, 38.77
2023-03-31T08:04:29.715Z, 38.72
2023-03-31T08:05:29.650Z, 38.75
2023-03-31T08:06:29.653Z, 38.75
2023-03-31T08:07:29.648Z, 38.73
2023-03-31T08:08:29.647Z, 38.73
2023-03-31T08:09:29.649Z, 38.72
2023-03-31T08:10:29.648Z, 38.72
2023-03-31T08:11:29.684Z, 38.74
2023-03-31T08:12:29.656Z, 38.70
2023-03-31T08:13:29.853Z, 38.72
2023-03-31T08:14:40.406Z, 38.72
2023-03-31T08:15:29.870Z, 38.66
2023-03-31T08:16:29.915Z, 38.63
2023-03-31T08:17:29.840Z, 38.64
2023-03-31T08:18:29.831Z, 38.64
2023-03-31T08:19:29.832Z, 38.61
2023-03-31T08:20:29.840Z, 38.58
2023-03-31T08:21:29.835Z, 38.57
2023-03-31T08:22:29.902Z, 38.56
2023-03-31T08:23:29.818Z, 38.51
2023-03-31T08:24:30.001Z, 38.47
2023-03-31T08:25:29.861Z, 38.41
2023-03-31T08:26:29.899Z, 38.40
2023-03-31T08:27:29.856Z, 38.45
2023-03-31T08:28:29.864Z, 38.45
2023-03-31T08:29:29.967Z, 38.40
2023-03-31T08:30:30.036Z, 38.40
2023-03-31T08:31:29.991Z, 38.35
2023-03-31T08:32:30.050Z, 38.35
2023-03-31T08:33:29.984Z, 38.37
2023-03-31T08:34:29.962Z, 38.36
2023-03-31T08:35:29.999Z, 38.34
2023-03-31T08:36:29.980Z, 38.34
2023-03-31T08:37:30.000Z, 38.35
2023-03-31T08:38:30.009Z, 38.36
2023-03-31T08:39:29.989Z, 38.40
2023-03-31T08:40:30.019Z, 38.35
2023-03-31T08:41:29.991Z, 38.32
2023-03-31T08:42:30.023Z, 38.27
2023-03-31T08:43:30.069Z, 38.20
2023-03-31T08:44:30.052Z, 38.25
2023-03-31T08:45:30.076Z, 38.28
2023-03-31T08:46:30.092Z, 38.25
2023-03-31T08:47:30.058Z, 38.19
2023-03-31T08:48:30.052Z, 38.18
2023-03-31T08:49:30.054Z, 38.18
2023-03-31T08:50:30.039Z, 38.12
2023-03-31T08:51:30.050Z, 38.12
2023-03-31T08:52:30.047Z, 38.10
2023-03-31T08:53:30.116Z, 38.07
2023-03-31T08:54:30.082Z, 38.10
2023-03-31T08:55:30.282Z, 38.12
2023-03-31T08:56:30.286Z, 38.10
2023-03-31T08:57:30.370Z, 38.07
2023-03-31T08:58:30.308Z, 38.04
2023-03-31T08:59:30.309Z, 38.05
2023-03-31T09:00:30.293Z, 38.01
2023-03-31T09:01:32.461Z, 38.02
2023-03-31T09:02:30.570Z, 37.95
2023-03-31T09:03:30.484Z, 38.00
2023-03-31T09:04:30.464Z, 37.98
2023-03-31T09:05:30.648Z, 37.97
2023-03-31T09:06:30.323Z, 37.94
2023-03-31T09:07:30.320Z, 37.99
2023-03-31T09:08:30.324Z, 37.94
2023-03-31T09:09:30.498Z, 37.88
2023-03-31T09:10:30.651Z, 37.90
2023-03-31T09:11:30.528Z, 37.93
2023-03-31T09:12:30.475Z, 37.83
2023-03-31T09:13:30.505Z, 37.84
2023-03-31T09:14:30.635Z, 37.88
2023-03-31T09:15:30.470Z, 37.85
2023-03-31T09:16:30.710Z, 37.88
2023-03-31T09:17:30.528Z, 37.89
2023-03-31T09:18:30.641Z, 37.87
2023-03-31T09:19:30.531Z, 37.82
2023-03-31T09:20:30.501Z, 37.83
2023-03-31T09:21:30.512Z, 37.83
2023-03-31T09:22:30.548Z, 37.85
2023-03-31T09:23:30.653Z, 37.80
2023-03-31T09:24:32.247Z, 37.83
2023-03-31T09:25:30.657Z, 37.75
2023-03-31T09:26:30.656Z, 37.73
2023-03-31T09:27:30.656Z, 37.76
2023-03-31T09:28:30.656Z, 37.72
2023-03-31T09:29:30.666Z, 37.72
2023-03-31T09:30:30.654Z, 37.70
2023-03-31T09:31:30.712Z, 37.64
2023-03-31T09:32:30.727Z, 37.58
2023-03-31T09:33:30.695Z, 37.61
2023-03-31T09:34:30.663Z, 37.66
2023-03-31T09:35:30.731Z, 37.63
2023-03-31T09:36:30.665Z, 37.68
2023-03-31T09:37:30.689Z, 37.67
2023-03-31T09:38:30.694Z, 37.63
2023-03-31T09:39:30.834Z, 37.59
2023-03-31T09:40:30.849Z, 37.60
2023-03-31T09:41:32.975Z, 37.59
2023-03-31T09:42:30.847Z, 37.60
2023-03-31T09:43:30.849Z, 37.56
2023-03-31T09:44:30.861Z, 37.55
2023-03-31T09:45:30.843Z, 37.57
2023-03-31T09:46:31.100Z, 37.48
2023-03-31T09:47:30.870Z, 37.49
2023-03-31T09:48:30.872Z, 37.49
2023-03-31T09:49:30.846Z, 37.48
2023-03-31T09:50:30.905Z, 37.49
2023-03-31T09:51:31.057Z, 37.45
2023-03-31T09:52:31.038Z, 37.44
2023-03-31T09:53:31.021Z, 37.43
2023-03-31T09:54:31.023Z, 37.41
2023-03-31T09:55:39.525Z, 37.44
2023-03-31T09:56:31.036Z, 37.45
2023-03-31T09:57:33.280Z, 37.47
2023-03-31T09:58:31.029Z, 37.45
2023-03-31T09:59:31.027Z, 37.42
2023-03-31T10:00:31.046Z, 37.41
2023-03-31T10:01:31.086Z, 37.94
2023-03-31T10:02:31.205Z, 39.07
2023-03-31T10:03:31.066Z, 39.40
2023-03-31T10:04:31.077Z, 39.54
2023-03-31T10:05:31.067Z, 39.57
2023-03-31T10:06:31.187Z, 39.57
2023-03-31T10:07:31.195Z, 39.56
2023-03-31T10:08:31.202Z, 39.47
2023-03-31T10:09:31.204Z, 39.42
2023-03-31T10:10:31.201Z, 39.37
2023-03-31T10:11:31.217Z, 39.33
2023-03-31T10:12:31.225Z, 39.30
2023-03-31T10:13:31.313Z, 39.25
2023-03-31T10:14:31.235Z, 39.19
2023-03-31T10:15:31.236Z, 39.14
2023-03-31T10:16:31.348Z, 39.13
2023-03-31T10:17:37.975Z, 39.05
2023-03-31T10:18:31.270Z, 39.00
2023-03-31T10:19:31.235Z, 38.97
2023-03-31T10:20:31.387Z, 38.92
2023-03-31T10:21:31.385Z, 38.88
2023-03-31T10:22:31.404Z, 38.79
2023-03-31T10:23:31.386Z, 38.75
2023-03-31T10:24:31.386Z, 38.69
2023-03-31T10:25:31.389Z, 38.62
2023-03-31T10:26:31.389Z, 38.61
2023-03-31T10:27:31.403Z, 38.56
2023-03-31T10:28:31.384Z, 38.47
2023-03-31T10:29:31.402Z, 38.45
2023-03-31T10:30:31.391Z, 38.38
2023-03-31T10:31:31.418Z, 38.21
2023-03-31T10:32:31.420Z, 37.97
2023-03-31T10:33:31.406Z, 37.74
2023-03-31T10:34:31.395Z, 37.52
2023-03-31T10:35:31.425Z, 37.32
2023-03-31T10:36:31.426Z, 37.20
2023-03-31T10:37:31.445Z, 37.11
2023-03-31T10:38:31.450Z, 36.99
2023-03-31T10:39:31.452Z, 36.91
2023-03-31T10:40:31.441Z, 36.85
2023-03-31T10:41:31.459Z, 36.79
2023-03-31T10:42:31.450Z, 36.78
2023-03-31T10:43:31.452Z, 36.71
2023-03-31T10:44:31.462Z, 36.65
2023-03-31T10:45:38.010Z, 36.63
2023-03-31T10:46:31.478Z, 36.59
2023-03-31T10:47:31.526Z, 36.53
2023-03-31T10:48:31.569Z, 36.53
2023-03-31T10:49:31.512Z, 36.48
2023-03-31T10:50:31.518Z, 36.43
2023-03-31T10:51:31.489Z, 36.41
2023-03-31T10:52:31.535Z, 36.38
2023-03-31T10:53:31.539Z, 36.34
2023-03-31T10:54:31.608Z, 36.33
2023-03-31T10:55:31.579Z, 36.29
2023-03-31T10:56:31.601Z, 36.26
2023-03-31T10:57:31.627Z, 36.23
2023-03-31T10:58:31.579Z, 36.16
2023-03-31T10:59:31.639Z, 36.16
2023-03-31T11:00:31.620Z, 36.13
2023-03-31T11:01:31.649Z, 36.09
2023-03-31T11:02:31.745Z, 36.06
2023-03-31T11:03:31.742Z, 36.00
2023-03-31T11:04:31.697Z, 35.95
2023-03-31T11:05:31.674Z, 35.93
2023-03-31T11:06:31.741Z, 35.91
2023-03-31T11:07:31.714Z, 35.91
2023-03-31T11:08:31.730Z, 35.91
2023-03-31T11:09:31.721Z, 35.86
2023-03-31T11:10:31.712Z, 35.85
2023-03-31T11:11:31.770Z, 35.83
2023-03-31T11:12:31.760Z, 35.84
2023-03-31T11:13:31.812Z, 35.83
2023-03-31T11:14:31.786Z, 35.85
2023-03-31T11:15:31.801Z, 35.80
2023-03-31T11:16:31.874Z, 35.78
2023-03-31T11:17:31.817Z, 35.73
2023-03-31T11:18:31.855Z, 35.76
2023-03-31T11:19:31.819Z, 35.74
2023-03-31T11:20:31.852Z, 35.72
2023-03-31T11:21:31.922Z, 35.71
2023-03-31T11:22:31.916Z, 35.74
2023-03-31T11:23:31.899Z, 35.77
2023-03-31T11:24:31.906Z, 35.77
2023-03-31T11:25:31.932Z, 35.71
2023-03-31T11:26:31.928Z, 35.66
2023-03-31T11:27:31.969Z, 35.64
2023-03-31T11:28:31.974Z, 35.63
2023-03-31T11:29:31.949Z, 35.62
2023-03-31T11:30:32.043Z, 35.62
2023-03-31T11:31:32.019Z, 35.59
2023-03-31T11:32:32.045Z, 35.64
2023-03-31T11:33:32.026Z, 35.65
2023-03-31T11:34:32.028Z, 35.60
2023-03-31T11:35:32.095Z, 35.56
2023-03-31T11:36:32.063Z, 35.54
2023-03-31T11:37:32.286Z, 35.59
2023-03-31T11:38:32.155Z, 35.53
2023-03-31T11:39:32.115Z, 35.54
2023-03-31T11:40:32.149Z, 35.47
2023-03-31T11:41:32.125Z, 35.45
2023-03-31T11:42:32.183Z, 35.46
2023-03-31T11:43:32.154Z, 35.44
2023-03-31T11:44:32.215Z, 35.40
2023-03-31T11:45:32.187Z, 35.35
2023-03-31T11:46:32.210Z, 35.35
2023-03-31T11:47:32.291Z, 35.35
2023-03-31T11:48:32.222Z, 35.40
2023-03-31T11:49:32.226Z, 35.36
2023-03-31T11:50:32.228Z, 35.35
2023-03-31T11:51:32.319Z, 35.33
2023-03-31T11:52:32.283Z, 35.34
2023-03-31T11:53:32.355Z, 35.33
2023-03-31T11:54:32.331Z, 35.30
2023-03-31T11:55:32.399Z, 35.37
2023-03-31T11:56:32.344Z, 35.35
2023-03-31T11:57:32.397Z, 35.32
2023-03-31T11:58:32.338Z, 35.34
2023-03-31T11:59:32.425Z, 35.35
2023-03-31T12:00:32.387Z, 35.35
2023-03-31T12:01:32.379Z, 35.36
2023-03-31T12:02:32.439Z, 35.31
2023-03-31T12:03:32.482Z, 35.32
2023-03-31T12:04:32.423Z, 35.35
2023-03-31T12:05:32.490Z, 35.35
2023-03-31T12:06:32.452Z, 35.34
2023-03-31T12:07:32.499Z, 35.35
2023-03-31T12:08:32.474Z, 35.26
2023-03-31T12:09:32.487Z, 35.28
2023-03-31T12:10:32.500Z, 35.23
2023-03-31T12:11:32.525Z, 35.24
2023-03-31T12:12:32.529Z, 35.23
2023-03-31T12:13:32.514Z, 35.24
2023-03-31T12:14:32.529Z, 35.25
2023-03-31T12:15:32.540Z, 35.21
2023-03-31T12:16:32.683Z, 35.22
2023-03-31T12:17:32.645Z, 35.22
2023-03-31T12:18:32.614Z, 35.18
2023-03-31T12:19:32.603Z, 35.18
2023-03-31T12:20:32.614Z, 35.17
2023-03-31T12:21:32.629Z, 35.15
2023-03-31T12:22:32.637Z, 35.13
2023-03-31T12:23:32.734Z, 35.10
2023-03-31T12:24:32.704Z, 35.09
2023-03-31T12:25:32.753Z, 35.11
2023-03-31T12:26:32.737Z, 35.09
2023-03-31T12:27:32.736Z, 35.10
2023-03-31T12:28:32.789Z, 35.05